sensor_id;sensor_type;location;lat;lon;timestamp;temperature;humidity
16736;DHT22;17990;49.548;9.730;2023-05-21T00:01:18;15.50;99.90
16736;DHT22;17990;49.548;9.730;2023-05-21T00:03:45;15.50;99.90
16736;DHT22;17990;49.548;9.730;2023-05-21T00:06:12;15.40;99.90
16736;DHT22;17990;49.548;9.730;2023-05-21T00:08:39;15.40;99.90
16736;DHT22;17990;49.548;9.730;2023-05-21T00:11:06;15.40;99.90
16736;DHT22;17990;49.548;9.730;2023-05-21T00:13:35;15.40;99.90
16736;DHT22;17990;49.548;9.730;2023-05-21T00:16:03;15.40;99.90
16736;DHT22;17990;49.548;9.730;2023-05-21T00:18:30;15.30;99.90
16736;DHT22;17990;49.548;9.730;2023-05-21T00:20:58;15.30;99.90
16736;DHT22;17990;49.548;9.730;2023-05-21T00:23:26;15.30;99.90
16736;DHT22;17990;49.548;9.730;2023-05-21T00:25:53;15.20;99.90
16736;DHT22;17990;49.548;9.730;2023-05-21T00:28:19;15.20;99.90
16736;DHT22;17990;49.548;9.730;2023-05-21T00:30:48;15.20;99.90
16736;DHT22;17990;49.548;9.730;2023-05-21T00:33:15;15.10;99.90
16736;DHT22;17990;49.548;9.730;2023-05-21T00:35:41;15.00;99.90
16736;DHT22;17990;49.548;9.730;2023-05-21T00:38:08;15.00;99.90
16736;DHT22;17990;49.548;9.730;2023-05-21T00:40:35;15.00;99.90
16736;DHT22;17990;49.548;9.730;2023-05-21T00:43:05;15.00;99.90
16736;DHT22;17990;49.548;9.730;2023-05-21T00:45:34;15.10;99.90
16736;DHT22;17990;49.548;9.730;2023-05-21T00:48:03;15.10;99.90
16736;DHT22;17990;49.548;9.730;2023-05-21T00:50:31;15.10;99.90
16736;DHT22;17990;49.548;9.730;2023-05-21T00:52:58;15.00;99.90
16736;DHT22;17990;49.548;9.730;2023-05-21T00:55:25;15.00;99.90
16736;DHT22;17990;49.548;9.730;2023-05-21T00:57:52;15.00;99.90
16736;DHT22;17990;49.548;9.730;2023-05-21T01:00:19;15.00;99.90
16736;DHT22;17990;49.548;9.730;2023-05-21T01:02:46;15.00;99.90
16736;DHT22;17990;49.548;9.730;2023-05-21T01:05:15;15.00;99.90
16736;DHT22;17990;49.548;9.730;2023-05-21T01:07:42;15.00;99.90
16736;DHT22;17990;49.548;9.730;2023-05-21T01:10:10;14.90;99.90
16736;DHT22;17990;49.548;9.730;2023-05-21T01:12:38;15.00;99.90
16736;DHT22;17990;49.548;9.730;2023-05-21T01:15:09;14.90;99.90
16736;DHT22;17990;49.548;9.730;2023-05-21T01:17:37;15.00;99.90
16736;DHT22;17990;49.548;9.730;2023-05-21T01:20:05;14.90;99.90
16736;DHT22;17990;49.548;9.730;2023-05-21T01:22:40;14.90;99.90
16736;DHT22;17990;49.548;9.730;2023-05-21T01:25:10;14.80;99.90
16736;DHT22;17990;49.548;9.730;2023-05-21T01:27:37;14.80;99.90
16736;DHT22;17990;49.548;9.730;2023-05-21T01:30:05;14.80;99.90
16736;DHT22;17990;49.548;9.730;2023-05-21T01:32:39;14.80;99.90
16736;DHT22;17990;49.548;9.730;2023-05-21T01:35:12;14.80;99.90
16736;DHT22;17990;49.548;9.730;2023-05-21T01:37:43;14.80;99.90
16736;DHT22;17990;49.548;9.730;2023-05-21T01:40:17;14.80;99.90
16736;DHT22;17990;49.548;9.730;2023-05-21T01:42:48;14.80;99.90
16736;DHT22;17990;49.548;9.730;2023-05-21T01:45:15;14.80;99.90
16736;DHT22;17990;49.548;9.730;2023-05-21T01:47:45;14.80;99.90
16736;DHT22;17990;49.548;9.730;2023-05-21T01:50:13;14.80;99.90
16736;DHT22;17990;49.548;9.730;2023-05-21T01:52:48;14.80;99.90
16736;DHT22;17990;49.548;9.730;2023-05-21T01:55:17;14.80;99.90
16736;DHT22;17990;49.548;9.730;2023-05-21T01:57:49;14.80;99.90
16736;DHT22;17990;49.548;9.730;2023-05-21T02:00:17;14.80;99.90
16736;DHT22;17990;49.548;9.730;2023-05-21T02:02:45;14.80;99.90
16736;DHT22;17990;49.548;9.730;2023-05-21T02:05:12;14.80;99.90
16736;DHT22;17990;49.548;9.730;2023-05-21T02:07:39;14.80;99.90
16736;DHT22;17990;49.548;9.730;2023-05-21T02:10:06;14.80;99.90
16736;DHT22;17990;49.548;9.730;2023-05-21T02:12:35;14.70;99.90
16736;DHT22;17990;49.548;9.730;2023-05-21T02:15:02;14.80;99.90
16736;DHT22;17990;49.548;9.730;2023-05-21T02:17:30;14.70;99.90
16736;DHT22;17990;49.548;9.730;2023-05-21T02:19:58;14.70;99.90
16736;DHT22;17990;49.548;9.730;2023-05-21T02:22:32;14.80;99.90
16736;DHT22;17990;49.548;9.730;2023-05-21T02:24:59;14.70;99.90
16736;DHT22;17990;49.548;9.730;2023-05-21T02:27:26;14.70;99.90
16736;DHT22;17990;49.548;9.730;2023-05-21T02:29:57;14.70;99.90
16736;DHT22;17990;49.548;9.730;2023-05-21T02:32:24;14.70;99.90
16736;DHT22;17990;49.548;9.730;2023-05-21T02:34:51;14.70;99.90
16736;DHT22;17990;49.548;9.730;2023-05-21T02:37:18;14.70;99.90
16736;DHT22;17990;49.548;9.730;2023-05-21T02:39:44;14.60;99.90
16736;DHT22;17990;49.548;9.730;2023-05-21T02:42:11;14.60;99.90
16736;DHT22;17990;49.548;9.730;2023-05-21T02:44:38;14.60;99.90
16736;DHT22;17990;49.548;9.730;2023-05-21T02:47:06;14.60;99.90
16736;DHT22;17990;49.548;9.730;2023-05-21T02:49:34;14.60;99.90
16736;DHT22;17990;49.548;9.730;2023-05-21T02:52:01;14.50;99.90
16736;DHT22;17990;49.548;9.730;2023-05-21T02:54:28;14.50;99.90
16736;DHT22;17990;49.548;9.730;2023-05-21T02:56:55;14.50;99.90
16736;DHT22;17990;49.548;9.730;2023-05-21T02:59:22;14.50;99.90
16736;DHT22;17990;49.548;9.730;2023-05-21T03:01:48;14.50;99.90
16736;DHT22;17990;49.548;9.730;2023-05-21T03:04:17;14.50;99.90
16736;DHT22;17990;49.548;9.730;2023-05-21T03:06:46;14.50;99.90
16736;DHT22;17990;49.548;9.730;2023-05-21T03:09:13;14.50;99.90
16736;DHT22;17990;49.548;9.730;2023-05-21T03:11:41;14.50;99.90
16736;DHT22;17990;49.548;9.730;2023-05-21T03:14:08;14.50;99.90
16736;DHT22;17990;49.548;9.730;2023-05-21T03:16:35;14.50;99.90
16736;DHT22;17990;49.548;9.730;2023-05-21T03:19:02;14.50;99.90
16736;DHT22;17990;49.548;9.730;2023-05-21T03:21:30;14.50;99.90
16736;DHT22;17990;49.548;9.730;2023-05-21T03:23:58;14.50;99.90
16736;DHT22;17990;49.548;9.730;2023-05-21T03:26:26;14.50;99.90
16736;DHT22;17990;49.548;9.730;2023-05-21T03:28:54;14.40;99.90
16736;DHT22;17990;49.548;9.730;2023-05-21T03:31:21;14.40;99.90
16736;DHT22;17990;49.548;9.730;2023-05-21T03:33:48;14.40;99.90
16736;DHT22;17990;49.548;9.730;2023-05-21T03:36:15;14.40;99.90
16736;DHT22;17990;49.548;9.730;2023-05-21T03:38:43;14.40;99.90
16736;DHT22;17990;49.548;9.730;2023-05-21T03:41:11;14.40;99.90
16736;DHT22;17990;49.548;9.730;2023-05-21T03:43:38;14.30;99.90
16736;DHT22;17990;49.548;9.730;2023-05-21T03:46:05;14.30;99.90
16736;DHT22;17990;49.548;9.730;2023-05-21T03:48:31;14.30;99.90
16736;DHT22;17990;49.548;9.730;2023-05-21T03:50:58;14.20;99.90
16736;DHT22;17990;49.548;9.730;2023-05-21T03:53:25;14.20;99.90
16736;DHT22;17990;49.548;9.730;2023-05-21T03:55:54;14.20;99.90
16736;DHT22;17990;49.548;9.730;2023-05-21T03:58:21;14.20;99.90
16736;DHT22;17990;49.548;9.730;2023-05-21T04:00:47;14.20;99.90
16736;DHT22;17990;49.548;9.730;2023-05-21T04:03:14;14.20;99.90
16736;DHT22;17990;49.548;9.730;2023-05-21T04:05:42;14.20;99.90
16736;DHT22;17990;49.548;9.730;2023-05-21T04:08:09;14.20;99.90
16736;DHT22;17990;49.548;9.730;2023-05-21T04:10:36;14.20;99.90
16736;DHT22;17990;49.548;9.730;2023-05-21T04:13:04;14.20;99.90
16736;DHT22;17990;49.548;9.730;2023-05-21T04:15:31;14.20;99.90
16736;DHT22;17990;49.548;9.730;2023-05-21T04:17:59;14.30;99.90
16736;DHT22;17990;49.548;9.730;2023-05-21T04:20:26;14.30;99.90
16736;DHT22;17990;49.548;9.730;2023-05-21T04:22:53;14.40;99.90
16736;DHT22;17990;49.548;9.730;2023-05-21T04:25:20;14.40;99.90
16736;DHT22;17990;49.548;9.730;2023-05-21T04:27:47;14.40;99.90
16736;DHT22;17990;49.548;9.730;2023-05-21T04:30:16;14.40;99.90
16736;DHT22;17990;49.548;9.730;2023-05-21T04:32:44;14.60;99.90
16736;DHT22;17990;49.548;9.730;2023-05-21T04:35:12;14.60;99.90
16736;DHT22;17990;49.548;9.730;2023-05-21T04:37:40;14.60;99.90
16736;DHT22;17990;49.548;9.730;2023-05-21T04:40:11;14.70;99.90
16736;DHT22;17990;49.548;9.730;2023-05-21T04:42:42;14.70;99.90
16736;DHT22;17990;49.548;9.730;2023-05-21T04:45:10;14.80;99.90
16736;DHT22;17990;49.548;9.730;2023-05-21T04:47:39;14.90;99.90
16736;DHT22;17990;49.548;9.730;2023-05-21T04:50:07;15.00;99.90
16736;DHT22;17990;49.548;9.730;2023-05-21T04:52:35;15.10;99.90
16736;DHT22;17990;49.548;9.730;2023-05-21T04:55:03;15.20;99.90
16736;DHT22;17990;49.548;9.730;2023-05-21T04:57:30;15.30;99.90
16736;DHT22;17990;49.548;9.730;2023-05-21T04:59:57;15.40;99.90
16736;DHT22;17990;49.548;9.730;2023-05-21T05:02:24;15.40;99.90
16736;DHT22;17990;49.548;9.730;2023-05-21T05:04:52;15.50;99.90
16736;DHT22;17990;49.548;9.730;2023-05-21T05:07:18;15.60;99.90
16736;DHT22;17990;49.548;9.730;2023-05-21T05:09:45;15.70;99.90
16736;DHT22;17990;49.548;9.730;2023-05-21T05:12:12;15.70;99.90
16736;DHT22;17990;49.548;9.730;2023-05-21T05:14:39;15.70;99.90
16736;DHT22;17990;49.548;9.730;2023-05-21T05:17:06;15.80;99.90
16736;DHT22;17990;49.548;9.730;2023-05-21T05:19:34;16.00;99.90
16736;DHT22;17990;49.548;9.730;2023-05-21T05:22:02;16.20;99.90
16736;DHT22;17990;49.548;9.730;2023-05-21T05:24:29;16.40;99.90
16736;DHT22;17990;49.548;9.730;2023-05-21T05:26:56;16.50;99.90
16736;DHT22;17990;49.548;9.730;2023-05-21T05:29:23;16.80;99.90
16736;DHT22;17990;49.548;9.730;2023-05-21T05:31:50;17.10;99.90
16736;DHT22;17990;49.548;9.730;2023-05-21T05:34:17;17.20;99.90
16736;DHT22;17990;49.548;9.730;2023-05-21T05:36:44;17.40;99.90
16736;DHT22;17990;49.548;9.730;2023-05-21T05:39:12;17.50;99.90
16736;DHT22;17990;49.548;9.730;2023-05-21T05:41:39;17.80;99.90
16736;DHT22;17990;49.548;9.730;2023-05-21T05:44:06;18.00;99.90
16736;DHT22;17990;49.548;9.730;2023-05-21T05:46:32;18.10;99.90
16736;DHT22;17990;49.548;9.730;2023-05-21T05:48:59;18.30;99.90
16736;DHT22;17990;49.548;9.730;2023-05-21T05:51:26;18.50;99.90
16736;DHT22;17990;49.548;9.730;2023-05-21T05:53:54;18.70;99.90
16736;DHT22;17990;49.548;9.730;2023-05-21T05:56:22;19.00;99.90
16736;DHT22;17990;49.548;9.730;2023-05-21T05:58:49;19.20;99.90
16736;DHT22;17990;49.548;9.730;2023-05-21T06:01:16;19.40;99.90
16736;DHT22;17990;49.548;9.730;2023-05-21T06:03:43;19.50;99.90
16736;DHT22;17990;49.548;9.730;2023-05-21T06:06:10;19.80;99.90
16736;DHT22;17990;49.548;9.730;2023-05-21T06:08:37;19.90;99.90
16736;DHT22;17990;49.548;9.730;2023-05-21T06:11:04;19.90;99.90
16736;DHT22;17990;49.548;9.730;2023-05-21T06:13:33;20.00;99.90
16736;DHT22;17990;49.548;9.730;2023-05-21T06:16:00;20.20;99.90
16736;DHT22;17990;49.548;9.730;2023-05-21T06:18:26;20.60;99.90
16736;DHT22;17990;49.548;9.730;2023-05-21T06:20:53;21.60;99.90
16736;DHT22;17990;49.548;9.730;2023-05-21T06:23:20;21.90;99.90
16736;DHT22;17990;49.548;9.730;2023-05-21T06:25:47;22.40;99.90
16736;DHT22;17990;49.548;9.730;2023-05-21T06:28:14;23.20;99.90
16736;DHT22;17990;49.548;9.730;2023-05-21T06:30:43;24.00;99.90
16736;DHT22;17990;49.548;9.730;2023-05-21T06:33:10;24.40;99.90
16736;DHT22;17990;49.548;9.730;2023-05-21T06:35:37;25.30;99.90
16736;DHT22;17990;49.548;9.730;2023-05-21T06:38:04;26.90;99.90
16736;DHT22;17990;49.548;9.730;2023-05-21T06:40:31;27.90;99.90
16736;DHT22;17990;49.548;9.730;2023-05-21T06:42:58;28.00;99.90
16736;DHT22;17990;49.548;9.730;2023-05-21T06:45:25;27.90;99.90
16736;DHT22;17990;49.548;9.730;2023-05-21T06:47:53;27.30;99.90
16736;DHT22;17990;49.548;9.730;2023-05-21T06:50:20;27.30;99.90
16736;DHT22;17990;49.548;9.730;2023-05-21T06:52:47;27.90;99.90
16736;DHT22;17990;49.548;9.730;2023-05-21T06:55:13;28.90;99.90
16736;DHT22;17990;49.548;9.730;2023-05-21T06:57:40;29.30;99.90
16736;DHT22;17990;49.548;9.730;2023-05-21T07:00:09;29.40;99.50
16736;DHT22;17990;49.548;9.730;2023-05-21T07:02:37;29.20;99.30
16736;DHT22;17990;49.548;9.730;2023-05-21T07:05:05;29.70;98.60
16736;DHT22;17990;49.548;9.730;2023-05-21T07:07:33;30.00;97.70
16736;DHT22;17990;49.548;9.730;2023-05-21T07:10:00;29.80;97.20
16736;DHT22;17990;49.548;9.730;2023-05-21T07:12:27;29.20;97.00
16736;DHT22;17990;49.548;9.730;2023-05-21T07:14:53;29.10;97.40
16736;DHT22;17990;49.548;9.730;2023-05-21T07:17:20;28.80;97.40
16736;DHT22;17990;49.548;9.730;2023-05-21T07:19:47;28.30;97.50
16736;DHT22;17990;49.548;9.730;2023-05-21T07:22:15;28.10;97.50
16736;DHT22;17990;49.548;9.730;2023-05-21T07:24:42;28.80;96.90
16736;DHT22;17990;49.548;9.730;2023-05-21T07:27:09;30.20;95.10
16736;DHT22;17990;49.548;9.730;2023-05-21T07:29:36;31.30;93.50
16736;DHT22;17990;49.548;9.730;2023-05-21T07:32:03;32.40;91.50
16736;DHT22;17990;49.548;9.730;2023-05-21T07:34:30;32.30;90.30
16736;DHT22;17990;49.548;9.730;2023-05-21T07:36:57;31.90;90.00
16736;DHT22;17990;49.548;9.730;2023-05-21T07:39:25;31.80;88.60
16736;DHT22;17990;49.548;9.730;2023-05-21T07:41:52;31.30;88.30
16736;DHT22;17990;49.548;9.730;2023-05-21T07:44:19;31.60;86.60
16736;DHT22;17990;49.548;9.730;2023-05-21T07:46:46;31.30;86.60
16736;DHT22;17990;49.548;9.730;2023-05-21T07:49:13;31.90;84.50
16736;DHT22;17990;49.548;9.730;2023-05-21T07:51:41;31.80;83.70
16736;DHT22;17990;49.548;9.730;2023-05-21T07:54:08;31.70;84.00
16736;DHT22;17990;49.548;9.730;2023-05-21T07:56:36;31.40;84.50
16736;DHT22;17990;49.548;9.730;2023-05-21T07:59:03;30.60;85.20
16736;DHT22;17990;49.548;9.730;2023-05-21T08:01:30;31.00;84.60
16736;DHT22;17990;49.548;9.730;2023-05-21T08:03:59;31.40;84.40
16736;DHT22;17990;49.548;9.730;2023-05-21T08:06:30;32.00;82.40
16736;DHT22;17990;49.548;9.730;2023-05-21T08:08:58;32.50;80.70
16736;DHT22;17990;49.548;9.730;2023-05-21T08:11:26;33.20;79.70
16736;DHT22;17990;49.548;9.730;2023-05-21T08:13:54;33.20;78.80
16736;DHT22;17990;49.548;9.730;2023-05-21T08:16:21;33.50;77.80
16736;DHT22;17990;49.548;9.730;2023-05-21T08:18:48;32.30;77.90
16736;DHT22;17990;49.548;9.730;2023-05-21T08:21:15;31.50;80.60
16736;DHT22;17990;49.548;9.730;2023-05-21T08:23:43;31.30;80.60
16736;DHT22;17990;49.548;9.730;2023-05-21T08:26:10;32.20;79.10
16736;DHT22;17990;49.548;9.730;2023-05-21T08:28:37;31.40;79.10
16736;DHT22;17990;49.548;9.730;2023-05-21T08:31:05;30.50;81.50
16736;DHT22;17990;49.548;9.730;2023-05-21T08:33:34;30.60;81.60
16736;DHT22;17990;49.548;9.730;2023-05-21T08:36:03;31.30;80.50
16736;DHT22;17990;49.548;9.730;2023-05-21T08:38:30;31.90;79.10
16736;DHT22;17990;49.548;9.730;2023-05-21T08:40:58;31.10;79.60
16736;DHT22;17990;49.548;9.730;2023-05-21T08:43:27;30.20;81.20
16736;DHT22;17990;49.548;9.730;2023-05-21T08:45:55;30.30;81.50
16736;DHT22;17990;49.548;9.730;2023-05-21T08:48:24;30.30;81.30
16736;DHT22;17990;49.548;9.730;2023-05-21T08:50:52;29.50;83.30
16736;DHT22;17990;49.548;9.730;2023-05-21T08:53:21;28.70;85.80
16736;DHT22;17990;49.548;9.730;2023-05-21T08:55:49;29.30;85.40
16736;DHT22;17990;49.548;9.730;2023-05-21T08:58:18;29.50;83.40
16736;DHT22;17990;49.548;9.730;2023-05-21T09:00:45;30.10;82.70
16736;DHT22;17990;49.548;9.730;2023-05-21T09:03:14;29.30;83.30
16736;DHT22;17990;49.548;9.730;2023-05-21T09:05:43;29.80;82.80
16736;DHT22;17990;49.548;9.730;2023-05-21T09:08:14;30.00;82.30
16736;DHT22;17990;49.548;9.730;2023-05-21T09:10:47;29.90;81.20
16736;DHT22;17990;49.548;9.730;2023-05-21T09:13:16;29.30;84.20
16736;DHT22;17990;49.548;9.730;2023-05-21T09:15:44;29.50;82.40
16736;DHT22;17990;49.548;9.730;2023-05-21T09:18:11;29.50;81.10
16736;DHT22;17990;49.548;9.730;2023-05-21T09:20:38;29.20;81.70
16736;DHT22;17990;49.548;9.730;2023-05-21T09:23:07;29.10;83.00
16736;DHT22;17990;49.548;9.730;2023-05-21T09:25:37;29.00;83.10
16736;DHT22;17990;49.548;9.730;2023-05-21T09:28:10;29.20;81.50
16736;DHT22;17990;49.548;9.730;2023-05-21T09:30:43;29.50;81.10
16736;DHT22;17990;49.548;9.730;2023-05-21T09:33:11;29.50;81.70
16736;DHT22;17990;49.548;9.730;2023-05-21T09:35:43;29.40;81.50
16736;DHT22;17990;49.548;9.730;2023-05-21T09:38:13;28.70;81.40
16736;DHT22;17990;49.548;9.730;2023-05-21T09:40:43;28.50;83.20
16736;DHT22;17990;49.548;9.730;2023-05-21T09:43:13;28.30;83.30
16736;DHT22;17990;49.548;9.730;2023-05-21T09:45:49;28.20;83.40
16736;DHT22;17990;49.548;9.730;2023-05-21T09:48:32;28.10;82.90
16736;DHT22;17990;49.548;9.730;2023-05-21T09:51:10;28.20;83.30
16736;DHT22;17990;49.548;9.730;2023-05-21T09:53:44;27.80;84.30
16736;DHT22;17990;49.548;9.730;2023-05-21T09:56:15;27.90;84.00
16736;DHT22;17990;49.548;9.730;2023-05-21T09:58:43;27.70;83.60
16736;DHT22;17990;49.548;9.730;2023-05-21T10:01:10;27.50;84.10
16736;DHT22;17990;49.548;9.730;2023-05-21T10:03:38;27.50;84.70
16736;DHT22;17990;49.548;9.730;2023-05-21T10:06:07;27.90;84.50
16736;DHT22;17990;49.548;9.730;2023-05-21T10:08:35;27.70;84.10
16736;DHT22;17990;49.548;9.730;2023-05-21T10:11:09;27.20;85.80
16736;DHT22;17990;49.548;9.730;2023-05-21T10:13:39;27.20;85.70
16736;DHT22;17990;49.548;9.730;2023-05-21T10:16:10;27.10;85.00
16736;DHT22;17990;49.548;9.730;2023-05-21T10:18:37;27.10;85.20
16736;DHT22;17990;49.548;9.730;2023-05-21T10:21:05;27.00;86.20
16736;DHT22;17990;49.548;9.730;2023-05-21T10:23:34;27.30;86.30
16736;DHT22;17990;49.548;9.730;2023-05-21T10:26:02;27.70;85.50
16736;DHT22;17990;49.548;9.730;2023-05-21T10:28:32;27.70;85.50
16736;DHT22;17990;49.548;9.730;2023-05-21T10:30:59;27.90;85.20
16736;DHT22;17990;49.548;9.730;2023-05-21T10:33:26;28.20;86.40
16736;DHT22;17990;49.548;9.730;2023-05-21T10:35:57;28.00;86.10
16736;DHT22;17990;49.548;9.730;2023-05-21T10:38:24;27.50;86.80
16736;DHT22;17990;49.548;9.730;2023-05-21T10:40:53;27.50;86.70
16736;DHT22;17990;49.548;9.730;2023-05-21T10:43:35;27.40;86.90
16736;DHT22;17990;49.548;9.730;2023-05-21T10:46:20;27.30;85.50
16736;DHT22;17990;49.548;9.730;2023-05-21T10:49:18;27.40;85.30
16736;DHT22;17990;49.548;9.730;2023-05-21T10:51:58;27.50;86.80
16736;DHT22;17990;49.548;9.730;2023-05-21T10:54:46;27.50;85.70
16736;DHT22;17990;49.548;9.730;2023-05-21T10:57:32;27.40;85.30
16736;DHT22;17990;49.548;9.730;2023-05-21T11:00:08;27.40;85.70
16736;DHT22;17990;49.548;9.730;2023-05-21T11:02:37;27.40;85.30
16736;DHT22;17990;49.548;9.730;2023-05-21T11:05:04;27.30;84.30
16736;DHT22;17990;49.548;9.730;2023-05-21T11:07:51;27.40;84.10
16736;DHT22;17990;49.548;9.730;2023-05-21T11:10:39;28.00;83.50
16736;DHT22;17990;49.548;9.730;2023-05-21T11:13:11;28.20;83.60
16736;DHT22;17990;49.548;9.730;2023-05-21T11:16:12;28.00;83.50
16736;DHT22;17990;49.548;9.730;2023-05-21T11:18:59;28.30;82.00
16736;DHT22;17990;49.548;9.730;2023-05-21T11:21:33;28.00;81.00
16736;DHT22;17990;49.548;9.730;2023-05-21T11:24:03;28.30;80.10
16736;DHT22;17990;49.548;9.730;2023-05-21T11:27:00;28.20;79.70
16736;DHT22;17990;49.548;9.730;2023-05-21T11:29:40;28.70;81.50
16736;DHT22;17990;49.548;9.730;2023-05-21T11:32:11;28.30;82.00
16736;DHT22;17990;49.548;9.730;2023-05-21T11:34:41;28.00;79.60
16736;DHT22;17990;49.548;9.730;2023-05-21T11:37:29;28.00;77.50
16736;DHT22;17990;49.548;9.730;2023-05-21T11:40:21;28.30;76.60
16736;DHT22;17990;49.548;9.730;2023-05-21T11:42:51;28.30;77.30
16736;DHT22;17990;49.548;9.730;2023-05-21T11:45:20;28.50;78.00
16736;DHT22;17990;49.548;9.730;2023-05-21T11:47:49;28.60;77.10
16736;DHT22;17990;49.548;9.730;2023-05-21T11:50:18;28.60;75.90
16736;DHT22;17990;49.548;9.730;2023-05-21T11:52:45;28.50;75.70
16736;DHT22;17990;49.548;9.730;2023-05-21T11:55:12;28.30;78.10
16736;DHT22;17990;49.548;9.730;2023-05-21T11:57:41;28.30;79.30
16736;DHT22;17990;49.548;9.730;2023-05-21T12:00:13;28.20;79.90
16736;DHT22;17990;49.548;9.730;2023-05-21T12:02:46;28.60;79.20
16736;DHT22;17990;49.548;9.730;2023-05-21T12:05:15;28.90;78.70
16736;DHT22;17990;49.548;9.730;2023-05-21T12:07:45;28.70;78.10
16736;DHT22;17990;49.548;9.730;2023-05-21T12:10:14;28.50;78.20
16736;DHT22;17990;49.548;9.730;2023-05-21T12:12:41;28.40;79.20
16736;DHT22;17990;49.548;9.730;2023-05-21T12:15:09;28.70;78.20
16736;DHT22;17990;49.548;9.730;2023-05-21T12:17:37;28.70;78.00
16736;DHT22;17990;49.548;9.730;2023-05-21T12:20:05;29.00;79.30
16736;DHT22;17990;49.548;9.730;2023-05-21T12:22:39;29.10;79.50
16736;DHT22;17990;49.548;9.730;2023-05-21T12:25:08;29.20;79.10
16736;DHT22;17990;49.548;9.730;2023-05-21T12:27:36;28.80;80.40
16736;DHT22;17990;49.548;9.730;2023-05-21T12:30:05;28.80;80.50
16736;DHT22;17990;49.548;9.730;2023-05-21T12:32:33;29.50;80.00
16736;DHT22;17990;49.548;9.730;2023-05-21T12:35:02;29.20;79.40
16736;DHT22;17990;49.548;9.730;2023-05-21T12:37:30;28.70;79.80
16736;DHT22;17990;49.548;9.730;2023-05-21T12:40:00;28.70;80.90
16736;DHT22;17990;49.548;9.730;2023-05-21T12:42:30;29.00;82.40
16736;DHT22;17990;49.548;9.730;2023-05-21T12:45:00;29.20;78.50
16736;DHT22;17990;49.548;9.730;2023-05-21T12:47:27;29.50;78.30
16736;DHT22;17990;49.548;9.730;2023-05-21T12:49:56;29.80;78.30
16736;DHT22;17990;49.548;9.730;2023-05-21T12:52:23;29.70;79.60
16736;DHT22;17990;49.548;9.730;2023-05-21T12:54:53;29.10;79.70
16736;DHT22;17990;49.548;9.730;2023-05-21T12:57:23;29.30;79.10
16736;DHT22;17990;49.548;9.730;2023-05-21T12:59:53;29.40;78.40
16736;DHT22;17990;49.548;9.730;2023-05-21T13:02:23;29.50;77.60
16736;DHT22;17990;49.548;9.730;2023-05-21T13:04:55;29.20;77.50
16736;DHT22;17990;49.548;9.730;2023-05-21T13:07:24;29.10;77.50
16736;DHT22;17990;49.548;9.730;2023-05-21T13:09:52;29.30;76.40
16736;DHT22;17990;49.548;9.730;2023-05-21T13:12:20;29.20;77.80
16736;DHT22;17990;49.548;9.730;2023-05-21T13:14:51;29.30;78.50
16736;DHT22;17990;49.548;9.730;2023-05-21T13:17:19;29.20;76.60
16736;DHT22;17990;49.548;9.730;2023-05-21T13:20:05;29.60;76.30
16736;DHT22;17990;49.548;9.730;2023-05-21T13:22:33;29.70;75.20
16736;DHT22;17990;49.548;9.730;2023-05-21T13:25:01;29.80;75.50
16736;DHT22;17990;49.548;9.730;2023-05-21T13:27:29;29.70;74.50
16736;DHT22;17990;49.548;9.730;2023-05-21T13:29:57;29.60;74.50
16736;DHT22;17990;49.548;9.730;2023-05-21T13:32:24;29.60;72.90
16736;DHT22;17990;49.548;9.730;2023-05-21T13:34:50;29.50;73.50
16736;DHT22;17990;49.548;9.730;2023-05-21T13:37:17;29.10;74.70
16736;DHT22;17990;49.548;9.730;2023-05-21T13:39:45;29.30;75.10
16736;DHT22;17990;49.548;9.730;2023-05-21T13:42:12;29.20;75.90
16736;DHT22;17990;49.548;9.730;2023-05-21T13:44:40;29.10;76.30
16736;DHT22;17990;49.548;9.730;2023-05-21T13:47:07;29.20;76.10
16736;DHT22;17990;49.548;9.730;2023-05-21T13:49:35;29.10;76.50
16736;DHT22;17990;49.548;9.730;2023-05-21T13:52:02;29.10;76.60
16736;DHT22;17990;49.548;9.730;2023-05-21T13:54:30;29.20;75.40
16736;DHT22;17990;49.548;9.730;2023-05-21T13:56:58;29.10;74.20
16736;DHT22;17990;49.548;9.730;2023-05-21T13:59:25;28.90;75.70
16736;DHT22;17990;49.548;9.730;2023-05-21T14:01:53;29.00;76.00
16736;DHT22;17990;49.548;9.730;2023-05-21T14:04:20;29.00;76.20
16736;DHT22;17990;49.548;9.730;2023-05-21T14:06:47;29.20;74.40
16736;DHT22;17990;49.548;9.730;2023-05-21T14:09:14;29.20;75.10
16736;DHT22;17990;49.548;9.730;2023-05-21T14:11:41;29.00;74.90
16736;DHT22;17990;49.548;9.730;2023-05-21T14:14:08;29.10;74.60
16736;DHT22;17990;49.548;9.730;2023-05-21T14:16:35;29.30;74.30
16736;DHT22;17990;49.548;9.730;2023-05-21T14:19:03;29.10;74.10
16736;DHT22;17990;49.548;9.730;2023-05-21T14:21:30;29.30;74.30
16736;DHT22;17990;49.548;9.730;2023-05-21T14:23:57;29.10;72.30
16736;DHT22;17990;49.548;9.730;2023-05-21T14:26:23;29.10;73.00
16736;DHT22;17990;49.548;9.730;2023-05-21T14:28:51;29.10;72.90
16736;DHT22;17990;49.548;9.730;2023-05-21T14:31:17;29.40;72.40
16736;DHT22;17990;49.548;9.730;2023-05-21T14:33:46;29.30;72.90
16736;DHT22;17990;49.548;9.730;2023-05-21T14:36:14;29.40;73.10
16736;DHT22;17990;49.548;9.730;2023-05-21T14:38:41;29.60;73.60
16736;DHT22;17990;49.548;9.730;2023-05-21T14:41:08;29.40;73.60
16736;DHT22;17990;49.548;9.730;2023-05-21T14:43:35;29.40;73.80
16736;DHT22;17990;49.548;9.730;2023-05-21T14:46:01;29.30;74.30
16736;DHT22;17990;49.548;9.730;2023-05-21T14:48:28;29.10;74.60
16736;DHT22;17990;49.548;9.730;2023-05-21T14:50:55;29.30;74.30
16736;DHT22;17990;49.548;9.730;2023-05-21T14:53:23;29.40;74.40
16736;DHT22;17990;49.548;9.730;2023-05-21T14:55:50;29.60;73.70
16736;DHT22;17990;49.548;9.730;2023-05-21T14:58:18;29.50;73.40
16736;DHT22;17990;49.548;9.730;2023-05-21T15:00:45;29.20;73.30
16736;DHT22;17990;49.548;9.730;2023-05-21T15:03:12;29.10;74.00
16736;DHT22;17990;49.548;9.730;2023-05-21T15:05:39;29.20;73.80
16736;DHT22;17990;49.548;9.730;2023-05-21T15:08:05;29.20;73.70
16736;DHT22;17990;49.548;9.730;2023-05-21T15:10:35;29.20;73.10
16736;DHT22;17990;49.548;9.730;2023-05-21T15:13:02;29.10;73.60
16736;DHT22;17990;49.548;9.730;2023-05-21T15:15:29;28.80;73.70
16736;DHT22;17990;49.548;9.730;2023-05-21T15:17:55;29.00;73.50
16736;DHT22;17990;49.548;9.730;2023-05-21T15:20:23;29.10;71.60
16736;DHT22;17990;49.548;9.730;2023-05-21T15:22:49;29.10;71.40
16736;DHT22;17990;49.548;9.730;2023-05-21T15:25:16;29.20;72.30
16736;DHT22;17990;49.548;9.730;2023-05-21T15:27:45;29.30;72.70
16736;DHT22;17990;49.548;9.730;2023-05-21T15:30:12;29.20;71.80
16736;DHT22;17990;49.548;9.730;2023-05-21T15:32:39;29.10;71.80
16736;DHT22;17990;49.548;9.730;2023-05-21T15:35:06;29.00;71.60
16736;DHT22;17990;49.548;9.730;2023-05-21T15:37:34;29.10;71.80
16736;DHT22;17990;49.548;9.730;2023-05-21T15:40:01;29.20;72.70